Saint Louis, MO

2:15 AM CDT on August 28, 2016 (GMT -0500)
Webster Groves | | Change Station

Elev 571 ft 38.59 °N, 90.35 °W | Updated 5 seconds ago

Mostly Cloudy
Mostly Cloudy
76.7 °F
Feels Like 79 °F
N
0.0
Wind Variable Wind from SE

Today
High -- | Low -- °F
--% Chance of Precip.
Yesterday
High -- | Low -- °F
Precip. -- in
Pressure 30.06 in
Visibility 10.0 miles
Clouds Mostly Cloudy 25000 ft
Heat Index 79 °F
Dew Point 60 °F
Humidity 56%
Rainfall 0.00 in
Snow Depth Not available.
6:27 AM 7:36 PM
Waning Crescent, 18% visible
METAR KSTL 280651Z 16005KT 10SM BKN250 27/22 A3010 RMK AO2 SLP178 T02670222
Pressure 30.06 in
Visibility 10.0 miles
Clouds Mostly Cloudy 25000 ft
Heat Index 79 °F
Dew Point 60 °F
Humidity 56%
Rainfall 0.00 in
Snow Depth Not available.
6:27 AM 7:36 PM
Waning Crescent, 18% visible
METAR KSTL 280651Z 16005KT 10SM BKN250 27/22 A3010 RMK AO2 SLP178 T02670222

10-Day Weather Forecast

Almanac

Astronomy

Aug. 28, 2016 Rise Set
Actual Time
Civil Twilight
Nautical Twilight
Astronomical Twilight
Moon
Length of Visible Light
Length of Day
Tomorrow will be .
, % of the Moon is Illuminated

Today's Extremes

State Highs State Lows

Community

WunderPhotos

Upload Photos

1,935,533 photos uploaded!

WunderBlog® & News

Nearby

Air Quality

  Air Quality AQ Index Pollutant
Not available.

Snow Depth

Station Depth Elevation

Earthquake Activity

City Distance Mag. Time & Date
Minimum magnitude displayed is 2.5.

Coastal Water Temperatures

Place Temperature

Stations

Nearby Weather Stations

Station Location Temp. Windchill Dew Point Humidity Wind Precip. Elev Updated Type
                   

Watches & Warnings

There are currently no watches in effect.